Terminal Aerodrome Forecast
Issued by NWS

Home | Current Version | Previous Version | Text Only | Print | Product List | Glossary On
Versions: 1 2 3 4 5 6 7 8 9 10 11 12 13 14 15 16 17 18 19
000
FTUS43 KSGF 272331
TAFJLN
TAF
KJLN 272331Z 2800/2824 36007KT P6SM VCSH SCT035 BKN100
      TEMPO 2800/2803 6SM -SHRA BKN025 OVC070
     FM280400 01006KT P6SM BKN035
     FM280900 02006KT 6SM BR SCT007 BKN015 OVC025
      TEMPO 2810/2814 BKN007 OVC015
     FM281600 02010KT P6SM SCT040=

USA.gov is the U.S. government's official web portal to all federal, state and local government web resources and services.